sensor_id;sensor_type;location;lat;lon;timestamp;pressure;altitude;pressure_sealevel;temperature;humidity
24160;BME280;62385;41.594;23.808;2023-07-29T00:00:41;95288.56;;;17.69;59.75
24160;BME280;62385;41.594;23.808;2023-07-29T00:03:08;95296.75;;;17.49;60.33
24160;BME280;62385;41.594;23.808;2023-07-29T00:05:36;95306.72;;;17.42;60.18
24160;BME280;62385;41.594;23.808;2023-07-29T00:08:01;95297.03;;;17.41;59.99
24160;BME280;62385;41.594;23.808;2023-07-29T00:10:27;95297.28;;;17.33;60.29
24160;BME280;62385;41.594;23.808;2023-07-29T00:12:52;95290.34;;;17.50;59.53
24160;BME280;62385;41.594;23.808;2023-07-29T00:15:18;95298.16;;;17.83;58.07
24160;BME280;62385;41.594;23.808;2023-07-29T00:17:43;95285.75;;;17.64;58.76
24160;BME280;62385;41.594;23.808;2023-07-29T00:20:09;95304.91;;;17.67;59.42
24160;BME280;62385;41.594;23.808;2023-07-29T00:22:35;95293.34;;;17.35;60.20
24160;BME280;62385;41.594;23.808;2023-07-29T00:25:00;95301.66;;;17.27;61.10
24160;BME280;62385;41.594;23.808;2023-07-29T00:27:26;95286.00;;;17.24;60.78
24160;BME280;62385;41.594;23.808;2023-07-29T00:29:54;95302.38;;;17.41;59.81
24160;BME280;62385;41.594;23.808;2023-07-29T00:32:19;95289.69;;;17.23;60.22
24160;BME280;62385;41.594;23.808;2023-07-29T00:34:45;95306.88;;;17.16;60.86
24160;BME280;62385;41.594;23.808;2023-07-29T00:37:10;95295.59;;;17.07;61.53
24160;BME280;62385;41.594;23.808;2023-07-29T00:39:38;95287.53;;;17.07;61.09
24160;BME280;62385;41.594;23.808;2023-07-29T00:42:06;95288.41;;;17.32;60.25
24160;BME280;62385;41.594;23.808;2023-07-29T00:44:32;95286.16;;;17.29;59.97
24160;BME280;62385;41.594;23.808;2023-07-29T00:47:02;95275.84;;;16.95;60.97
24160;BME280;62385;41.594;23.808;2023-07-29T00:49:31;95272.53;;;16.99;60.76
24160;BME280;62385;41.594;23.808;2023-07-29T00:51:57;95281.31;;;17.13;61.12
24160;BME280;62385;41.594;23.808;2023-07-29T00:54:24;95282.00;;;17.02;60.81
24160;BME280;62385;41.594;23.808;2023-07-29T00:56:50;95278.91;;;17.05;60.79
24160;BME280;62385;41.594;23.808;2023-07-29T00:59:16;95282.47;;;17.24;60.00
24160;BME280;62385;41.594;23.808;2023-07-29T01:01:42;95297.13;;;17.59;59.78
24160;BME280;62385;41.594;23.808;2023-07-29T01:04:07;95271.63;;;17.12;60.25
24160;BME280;62385;41.594;23.808;2023-07-29T01:07:14;95302.28;;;17.23;60.61
24160;BME280;62385;41.594;23.808;2023-07-29T01:12:29;95294.50;;;17.15;60.97
24160;BME280;62385;41.594;23.808;2023-07-29T01:15:13;95289.84;;;17.35;60.37
24160;BME280;62385;41.594;23.808;2023-07-29T01:17:42;95288.09;;;17.16;61.41
24160;BME280;62385;41.594;23.808;2023-07-29T01:20:11;95293.91;;;17.13;61.70
24160;BME280;62385;41.594;23.808;2023-07-29T01:22:39;95302.97;;;16.80;62.59
24160;BME280;62385;41.594;23.808;2023-07-29T01:25:05;95297.38;;;16.82;62.65
24160;BME280;62385;41.594;23.808;2023-07-29T01:27:31;95294.16;;;16.67;62.75
24160;BME280;62385;41.594;23.808;2023-07-29T01:29:58;95300.88;;;16.82;61.84
24160;BME280;62385;41.594;23.808;2023-07-29T01:35:08;95291.75;;;16.90;62.21
24160;BME280;62385;41.594;23.808;2023-07-29T01:37:37;95298.28;;;16.56;62.96
24160;BME280;62385;41.594;23.808;2023-07-29T01:40:05;95302.19;;;16.67;62.33
24160;BME280;62385;41.594;23.808;2023-07-29T01:42:34;95285.03;;;16.74;62.28
24160;BME280;62385;41.594;23.808;2023-07-29T01:44:59;95283.56;;;16.78;62.70
24160;BME280;62385;41.594;23.808;2023-07-29T01:47:25;95293.75;;;16.63;63.47
24160;BME280;62385;41.594;23.808;2023-07-29T01:49:54;95299.97;;;16.50;63.25
24160;BME280;62385;41.594;23.808;2023-07-29T01:52:19;95289.28;;;16.44;63.52
24160;BME280;62385;41.594;23.808;2023-07-29T01:54:45;95303.84;;;16.54;63.57
24160;BME280;62385;41.594;23.808;2023-07-29T01:57:10;95303.22;;;16.52;63.91
24160;BME280;62385;41.594;23.808;2023-07-29T01:59:36;95294.78;;;16.49;63.61
24160;BME280;62385;41.594;23.808;2023-07-29T02:02:02;95287.16;;;16.52;63.18
24160;BME280;62385;41.594;23.808;2023-07-29T02:04:28;95296.06;;;16.46;63.46
24160;BME280;62385;41.594;23.808;2023-07-29T02:06:53;95298.34;;;16.36;64.03
24160;BME280;62385;41.594;23.808;2023-07-29T02:09:20;95271.22;;;16.13;63.94
24160;BME280;62385;41.594;23.808;2023-07-29T02:11:45;95304.94;;;16.34;64.18
24160;BME280;62385;41.594;23.808;2023-07-29T02:14:11;95303.53;;;16.25;63.72
24160;BME280;62385;41.594;23.808;2023-07-29T02:16:38;95303.94;;;16.35;63.50
24160;BME280;62385;41.594;23.808;2023-07-29T02:19:04;95312.81;;;16.22;64.37
24160;BME280;62385;41.594;23.808;2023-07-29T02:21:30;95282.34;;;16.03;64.51
24160;BME280;62385;41.594;23.808;2023-07-29T02:23:55;95308.28;;;16.16;64.14
24160;BME280;62385;41.594;23.808;2023-07-29T02:26:22;95309.94;;;16.17;64.51
24160;BME280;62385;41.594;23.808;2023-07-29T02:28:47;95290.13;;;16.31;64.66
24160;BME280;62385;41.594;23.808;2023-07-29T02:31:20;95312.81;;;16.22;64.52
24160;BME280;62385;41.594;23.808;2023-07-29T02:33:47;95304.63;;;15.97;65.12
24160;BME280;62385;41.594;23.808;2023-07-29T02:36:14;95308.72;;;16.00;64.91
24160;BME280;62385;41.594;23.808;2023-07-29T02:38:41;95288.38;;;15.86;65.60
24160;BME280;62385;41.594;23.808;2023-07-29T02:41:08;95304.56;;;16.24;64.61
24160;BME280;62385;41.594;23.808;2023-07-29T02:43:35;95297.13;;;16.32;64.86
24160;BME280;62385;41.594;23.808;2023-07-29T02:46:02;95293.41;;;16.33;64.71
24160;BME280;62385;41.594;23.808;2023-07-29T02:48:28;95308.50;;;16.08;64.68
24160;BME280;62385;41.594;23.808;2023-07-29T02:51:02;95323.16;;;15.92;65.37
24160;BME280;62385;41.594;23.808;2023-07-29T02:53:28;95312.44;;;15.92;65.21
24160;BME280;62385;41.594;23.808;2023-07-29T02:55:53;95303.41;;;15.74;65.72
24160;BME280;62385;41.594;23.808;2023-07-29T02:58:19;95312.25;;;15.81;64.75
24160;BME280;62385;41.594;23.808;2023-07-29T03:00:45;95310.00;;;15.64;65.85
24160;BME280;62385;41.594;23.808;2023-07-29T03:03:12;95310.63;;;15.80;65.60
24160;BME280;62385;41.594;23.808;2023-07-29T03:05:38;95312.66;;;15.84;65.15
24160;BME280;62385;41.594;23.808;2023-07-29T03:08:05;95306.06;;;16.00;64.76
24160;BME280;62385;41.594;23.808;2023-07-29T03:10:30;95306.28;;;15.92;65.09
24160;BME280;62385;41.594;23.808;2023-07-29T03:12:56;95320.88;;;15.96;64.88
24160;BME280;62385;41.594;23.808;2023-07-29T03:15:25;95331.78;;;15.94;65.05
24160;BME280;62385;41.594;23.808;2023-07-29T03:17:54;95335.94;;;15.70;65.88
24160;BME280;62385;41.594;23.808;2023-07-29T03:20:20;95332.66;;;15.68;66.06
24160;BME280;62385;41.594;23.808;2023-07-29T03:22:46;95327.09;;;15.57;66.06
24160;BME280;62385;41.594;23.808;2023-07-29T03:25:13;95334.50;;;15.75;65.86
24160;BME280;62385;41.594;23.808;2023-07-29T03:27:38;95327.69;;;15.65;65.68
24160;BME280;62385;41.594;23.808;2023-07-29T03:30:05;95334.69;;;15.66;65.88
24160;BME280;62385;41.594;23.808;2023-07-29T03:32:31;95334.50;;;15.55;65.90
24160;BME280;62385;41.594;23.808;2023-07-29T03:34:57;95339.22;;;15.66;65.62
24160;BME280;62385;41.594;23.808;2023-07-29T03:37:22;95336.75;;;15.71;65.61
24160;BME280;62385;41.594;23.808;2023-07-29T03:39:48;95337.56;;;16.04;65.27
24160;BME280;62385;41.594;23.808;2023-07-29T03:42:15;95347.03;;;16.07;64.77
24160;BME280;62385;41.594;23.808;2023-07-29T03:44:40;95331.00;;;15.81;65.45
24160;BME280;62385;41.594;23.808;2023-07-29T03:47:06;95340.25;;;15.78;65.75
24160;BME280;62385;41.594;23.808;2023-07-29T03:49:32;95341.28;;;15.84;65.72
24160;BME280;62385;41.594;23.808;2023-07-29T03:51:58;95339.22;;;15.59;66.64
24160;BME280;62385;41.594;23.808;2023-07-29T03:54:23;95347.06;;;15.81;66.29
24160;BME280;62385;41.594;23.808;2023-07-29T03:56:49;95336.97;;;15.89;66.92
24160;BME280;62385;41.594;23.808;2023-07-29T03:59:14;95345.78;;;16.16;65.61
24160;BME280;62385;41.594;23.808;2023-07-29T04:01:40;95362.25;;;16.39;65.34
24160;BME280;62385;41.594;23.808;2023-07-29T04:04:05;95352.81;;;16.04;67.03
24160;BME280;62385;41.594;23.808;2023-07-29T04:06:31;95348.88;;;16.13;66.95
24160;BME280;62385;41.594;23.808;2023-07-29T04:08:58;95353.59;;;16.24;66.69
24160;BME280;62385;41.594;23.808;2023-07-29T04:11:23;95354.44;;;16.11;66.57
24160;BME280;62385;41.594;23.808;2023-07-29T04:13:49;95358.72;;;16.32;64.88
24160;BME280;62385;41.594;23.808;2023-07-29T04:16:14;95358.09;;;16.37;65.88
24160;BME280;62385;41.594;23.808;2023-07-29T04:18:41;95357.50;;;16.35;66.12
24160;BME280;62385;41.594;23.808;2023-07-29T04:21:06;95366.13;;;16.63;64.47
24160;BME280;62385;41.594;23.808;2023-07-29T04:23:32;95361.34;;;16.72;64.75
24160;BME280;62385;41.594;23.808;2023-07-29T04:25:59;95362.53;;;16.82;64.47
24160;BME280;62385;41.594;23.808;2023-07-29T04:28:24;95350.09;;;17.01;63.78
24160;BME280;62385;41.594;23.808;2023-07-29T04:30:50;95347.81;;;17.04;64.21
24160;BME280;62385;41.594;23.808;2023-07-29T04:33:15;95355.84;;;17.04;64.32
24160;BME280;62385;41.594;23.808;2023-07-29T04:35:41;95347.19;;;17.02;64.68
24160;BME280;62385;41.594;23.808;2023-07-29T04:38:06;95359.56;;;17.10;64.50
24160;BME280;62385;41.594;23.808;2023-07-29T04:40:33;95361.47;;;17.34;63.83
24160;BME280;62385;41.594;23.808;2023-07-29T04:43:00;95365.63;;;17.30;64.97
24160;BME280;62385;41.594;23.808;2023-07-29T04:45:29;95348.41;;;17.44;63.27
24160;BME280;62385;41.594;23.808;2023-07-29T04:47:56;95366.50;;;17.62;62.69
24160;BME280;62385;41.594;23.808;2023-07-29T04:50:23;95355.09;;;17.67;62.83
24160;BME280;62385;41.594;23.808;2023-07-29T04:52:48;95345.84;;;17.63;62.25
24160;BME280;62385;41.594;23.808;2023-07-29T04:55:14;95360.78;;;17.77;62.17
24160;BME280;62385;41.594;23.808;2023-07-29T04:57:40;95350.28;;;17.75;62.77
24160;BME280;62385;41.594;23.808;2023-07-29T05:00:06;95349.13;;;17.89;62.06
24160;BME280;62385;41.594;23.808;2023-07-29T05:02:31;95358.19;;;17.95;61.69
24160;BME280;62385;41.594;23.808;2023-07-29T05:04:57;95341.84;;;18.21;61.41
24160;BME280;62385;41.594;23.808;2023-07-29T05:07:23;95361.19;;;18.30;60.87
24160;BME280;62385;41.594;23.808;2023-07-29T05:09:48;95365.94;;;18.53;60.14
24160;BME280;62385;41.594;23.808;2023-07-29T05:12:14;95365.22;;;18.39;60.99
24160;BME280;62385;41.594;23.808;2023-07-29T05:14:40;95369.25;;;18.48;61.40
24160;BME280;62385;41.594;23.808;2023-07-29T05:17:05;95377.44;;;18.60;60.64
24160;BME280;62385;41.594;23.808;2023-07-29T05:19:31;95376.94;;;18.44;62.34
24160;BME280;62385;41.594;23.808;2023-07-29T05:21:57;95377.44;;;18.35;63.22
24160;BME280;62385;41.594;23.808;2023-07-29T05:24:24;95370.88;;;18.31;62.89
24160;BME280;62385;41.594;23.808;2023-07-29T05:26:49;95369.72;;;18.45;62.74
24160;BME280;62385;41.594;23.808;2023-07-29T05:29:15;95372.03;;;18.41;62.89
24160;BME280;62385;41.594;23.808;2023-07-29T05:31:41;95385.63;;;18.71;61.94
24160;BME280;62385;41.594;23.808;2023-07-29T05:34:07;95367.09;;;18.63;62.03
24160;BME280;62385;41.594;23.808;2023-07-29T05:36:32;95376.06;;;18.75;62.35
24160;BME280;62385;41.594;23.808;2023-07-29T05:38:58;95376.69;;;18.89;61.59
24160;BME280;62385;41.594;23.808;2023-07-29T05:41:23;95379.97;;;19.09;60.16
24160;BME280;62385;41.594;23.808;2023-07-29T05:43:49;95376.84;;;19.12;60.66
24160;BME280;62385;41.594;23.808;2023-07-29T05:46:15;95382.97;;;19.19;60.28
24160;BME280;62385;41.594;23.808;2023-07-29T05:48:41;95387.84;;;19.11;59.58
24160;BME280;62385;41.594;23.808;2023-07-29T05:51:07;95387.78;;;18.99;59.84
24160;BME280;62385;41.594;23.808;2023-07-29T05:53:33;95378.25;;;19.15;59.61
24160;BME280;62385;41.594;23.808;2023-07-29T05:55:59;95369.81;;;19.11;58.65
24160;BME280;62385;41.594;23.808;2023-07-29T05:58:25;95380.78;;;19.28;58.50
24160;BME280;62385;41.594;23.808;2023-07-29T06:00:51;95385.50;;;19.32;58.68
24160;BME280;62385;41.594;23.808;2023-07-29T06:03:17;95387.59;;;19.49;57.57
24160;BME280;62385;41.594;23.808;2023-07-29T06:05:43;95381.72;;;19.52;56.88
24160;BME280;62385;41.594;23.808;2023-07-29T06:08:09;95384.03;;;19.66;57.17
24160;BME280;62385;41.594;23.808;2023-07-29T06:10:35;95383.94;;;19.85;56.69
24160;BME280;62385;41.594;23.808;2023-07-29T06:13:01;95381.72;;;19.93;56.59
24160;BME280;62385;41.594;23.808;2023-07-29T06:15:26;95381.66;;;20.00;56.42
24160;BME280;62385;41.594;23.808;2023-07-29T06:17:52;95372.06;;;20.15;56.02
24160;BME280;62385;41.594;23.808;2023-07-29T06:20:18;95382.13;;;20.08;56.45
24160;BME280;62385;41.594;23.808;2023-07-29T06:22:43;95381.66;;;20.23;55.77
24160;BME280;62385;41.594;23.808;2023-07-29T06:25:09;95384.28;;;20.30;54.82
24160;BME280;62385;41.594;23.808;2023-07-29T06:27:35;95371.53;;;20.37;53.72
24160;BME280;62385;41.594;23.808;2023-07-29T06:30:00;95365.50;;;20.23;54.94
24160;BME280;62385;41.594;23.808;2023-07-29T06:32:26;95366.66;;;20.27;54.69
24160;BME280;62385;41.594;23.808;2023-07-29T06:34:51;95351.00;;;20.47;53.58
24160;BME280;62385;41.594;23.808;2023-07-29T06:37:19;95358.81;;;20.72;53.15
24160;BME280;62385;41.594;23.808;2023-07-29T06:39:44;95353.56;;;20.77;52.61
24160;BME280;62385;41.594;23.808;2023-07-29T06:42:10;95358.09;;;20.88;52.25
24160;BME280;62385;41.594;23.808;2023-07-29T06:44:35;95343.13;;;20.57;52.48
24160;BME280;62385;41.594;23.808;2023-07-29T06:47:01;95344.47;;;20.83;52.69
24160;BME280;62385;41.594;23.808;2023-07-29T06:49:27;95347.84;;;21.13;51.42
24160;BME280;62385;41.594;23.808;2023-07-29T06:51:53;95346.44;;;21.11;50.27
24160;BME280;62385;41.594;23.808;2023-07-29T06:54:18;95340.03;;;21.29;49.79
24160;BME280;62385;41.594;23.808;2023-07-29T06:56:43;95338.56;;;21.09;50.95
24160;BME280;62385;41.594;23.808;2023-07-29T06:59:09;95340.03;;;21.29;50.94
24160;BME280;62385;41.594;23.808;2023-07-29T07:01:35;95334.19;;;21.32;50.79
24160;BME280;62385;41.594;23.808;2023-07-29T07:04:00;95335.22;;;21.59;49.97
24160;BME280;62385;41.594;23.808;2023-07-29T07:06:26;95329.38;;;21.50;50.10
24160;BME280;62385;41.594;23.808;2023-07-29T07:08:52;95334.59;;;21.69;49.81
24160;BME280;62385;41.594;23.808;2023-07-29T07:11:18;95328.03;;;21.64;50.16
24160;BME280;62385;41.594;23.808;2023-07-29T07:13:44;95323.72;;;21.80;49.17
24160;BME280;62385;41.594;23.808;2023-07-29T07:16:10;95321.38;;;22.00;48.20
24160;BME280;62385;41.594;23.808;2023-07-29T07:18:35;95324.63;;;21.86;47.68
24160;BME280;62385;41.594;23.808;2023-07-29T07:21:01;95321.34;;;21.84;46.98
24160;BME280;62385;41.594;23.808;2023-07-29T07:23:26;95317.63;;;22.01;46.81
24160;BME280;62385;41.594;23.808;2023-07-29T07:25:52;95315.06;;;22.12;47.79
24160;BME280;62385;41.594;23.808;2023-07-29T07:28:17;95318.16;;;22.20;46.67
24160;BME280;62385;41.594;23.808;2023-07-29T07:30:43;95314.25;;;22.28;46.31
24160;BME280;62385;41.594;23.808;2023-07-29T07:33:09;95308.13;;;22.54;47.65
24160;BME280;62385;41.594;23.808;2023-07-29T07:35:34;95310.38;;;22.79;47.12
24160;BME280;62385;41.594;23.808;2023-07-29T07:38:00;95309.13;;;22.86;46.42
24160;BME280;62385;41.594;23.808;2023-07-29T07:40:33;95312.03;;;22.80;45.57
24160;BME280;62385;41.594;23.808;2023-07-29T07:42:58;95307.50;;;22.85;46.64
24160;BME280;62385;41.594;23.808;2023-07-29T07:45:24;95307.19;;;23.04;46.67
24160;BME280;62385;41.594;23.808;2023-07-29T07:47:52;95285.44;;;22.98;46.23
24160;BME280;62385;41.594;23.808;2023-07-29T07:50:18;95292.13;;;23.13;45.98
24160;BME280;62385;41.594;23.808;2023-07-29T07:52:44;95284.28;;;23.38;45.46
24160;BME280;62385;41.594;23.808;2023-07-29T07:55:09;95278.88;;;23.38;45.67
24160;BME280;62385;41.594;23.808;2023-07-29T07:57:35;95293.16;;;23.55;43.98
24160;BME280;62385;41.594;23.808;2023-07-29T08:00:00;95286.75;;;23.66;46.53
24160;BME280;62385;41.594;23.808;2023-07-29T08:02:26;95284.91;;;23.45;45.59
24160;BME280;62385;41.594;23.808;2023-07-29T08:04:51;95280.22;;;23.35;45.89
24160;BME280;62385;41.594;23.808;2023-07-29T08:07:17;95278.75;;;23.81;44.94
24160;BME280;62385;41.594;23.808;2023-07-29T08:09:44;95278.22;;;23.79;46.61
24160;BME280;62385;41.594;23.808;2023-07-29T08:12:09;95266.06;;;24.19;44.62
24160;BME280;62385;41.594;23.808;2023-07-29T08:14:34;95261.25;;;24.26;45.57
24160;BME280;62385;41.594;23.808;2023-07-29T08:17:00;95264.78;;;24.31;44.38
24160;BME280;62385;41.594;23.808;2023-07-29T08:19:27;95250.41;;;24.31;45.13
24160;BME280;62385;41.594;23.808;2023-07-29T08:21:53;95249.72;;;24.51;43.72
24160;BME280;62385;41.594;23.808;2023-07-29T08:24:19;95242.16;;;24.58;44.69
24160;BME280;62385;41.594;23.808;2023-07-29T08:26:45;95241.53;;;24.46;44.05
24160;BME280;62385;41.594;23.808;2023-07-29T08:29:11;95238.78;;;24.88;43.42
24160;BME280;62385;41.594;23.808;2023-07-29T08:31:37;95249.41;;;24.94;43.13
24160;BME280;62385;41.594;23.808;2023-07-29T08:34:03;95235.28;;;24.92;42.41
24160;BME280;62385;41.594;23.808;2023-07-29T08:36:28;95248.66;;;25.19;43.12
24160;BME280;62385;41.594;23.808;2023-07-29T08:38:54;95237.78;;;25.14;41.20
24160;BME280;62385;41.594;23.808;2023-07-29T08:41:31;95242.00;;;24.79;42.99
24160;BME280;62385;41.594;23.808;2023-07-29T08:44:12;95247.53;;;25.10;39.34
24160;BME280;62385;41.594;23.808;2023-07-29T08:46:40;95236.22;;;25.33;39.85
24160;BME280;62385;41.594;23.808;2023-07-29T08:49:06;95226.44;;;25.47;40.39
24160;BME280;62385;41.594;23.808;2023-07-29T08:51:34;95231.88;;;25.47;38.31
24160;BME280;62385;41.594;23.808;2023-07-29T08:54:01;95227.19;;;25.22;40.68
24160;BME280;62385;41.594;23.808;2023-07-29T08:56:27;95218.22;;;25.22;39.15
24160;BME280;62385;41.594;23.808;2023-07-29T08:58:53;95223.63;;;25.02;39.41
24160;BME280;62385;41.594;23.808;2023-07-29T09:01:19;95217.81;;;25.70;37.38
24160;BME280;62385;41.594;23.808;2023-07-29T09:03:45;95209.09;;;26.04;37.55
24160;BME280;62385;41.594;23.808;2023-07-29T09:06:11;95213.72;;;26.03;35.99
24160;BME280;62385;41.594;23.808;2023-07-29T09:08:37;95209.59;;;26.16;34.75
24160;BME280;62385;41.594;23.808;2023-07-29T09:11:03;95204.16;;;26.06;36.56
24160;BME280;62385;41.594;23.808;2023-07-29T09:13:29;95192.63;;;26.64;34.20
24160;BME280;62385;41.594;23.808;2023-07-29T09:15:55;95199.38;;;26.77;34.96
24160;BME280;62385;41.594;23.808;2023-07-29T09:18:22;95184.78;;;26.48;34.83
24160;BME280;62385;41.594;23.808;2023-07-29T09:20:49;95179.59;;;26.56;34.16
24160;BME280;62385;41.594;23.808;2023-07-29T09:23:15;95174.03;;;26.82;34.94
24160;BME280;62385;41.594;23.808;2023-07-29T09:25:41;95174.44;;;27.14;33.14
24160;BME280;62385;41.594;23.808;2023-07-29T09:28:09;95172.34;;;26.96;35.36
24160;BME280;62385;41.594;23.808;2023-07-29T09:30:38;95180.56;;;26.91;34.12
24160;BME280;62385;41.594;23.808;2023-07-29T09:33:03;95165.03;;;26.91;33.21
24160;BME280;62385;41.594;23.808;2023-07-29T09:35:30;95151.19;;;26.73;33.25
24160;BME280;62385;41.594;23.808;2023-07-29T09:37:57;95165.97;;;27.16;34.37
24160;BME280;62385;41.594;23.808;2023-07-29T09:40:23;95148.22;;;27.23;35.83
24160;BME280;62385;41.594;23.808;2023-07-29T09:42:53;95163.59;;;27.48;34.65
24160;BME280;62385;41.594;23.808;2023-07-29T09:45:26;95163.97;;;27.70;33.61
24160;BME280;62385;41.594;23.808;2023-07-29T09:47:53;95164.91;;;27.56;32.54
24160;BME280;62385;41.594;23.808;2023-07-29T09:50:26;95149.94;;;27.53;31.87
24160;BME280;62385;41.594;23.808;2023-07-29T09:52:54;95157.31;;;27.81;33.73
24160;BME280;62385;41.594;23.808;2023-07-29T09:55:23;95151.25;;;27.89;31.76
24160;BME280;62385;41.594;23.808;2023-07-29T09:57:57;95154.91;;;28.04;31.55
24160;BME280;62385;41.594;23.808;2023-07-29T10:00:27;95138.91;;;27.63;31.86
24160;BME280;62385;41.594;23.808;2023-07-29T10:02:53;95136.63;;;28.04;31.38
24160;BME280;62385;41.594;23.808;2023-07-29T10:05:20;95133.25;;;28.17;28.89
24160;BME280;62385;41.594;23.808;2023-07-29T10:07:48;95121.94;;;28.00;31.72
24160;BME280;62385;41.594;23.808;2023-07-29T10:10:15;95127.38;;;28.00;33.64
24160;BME280;62385;41.594;23.808;2023-07-29T10:12:41;95134.94;;;27.79;32.41
24160;BME280;62385;41.594;23.808;2023-07-29T10:15:08;95132.81;;;27.76;34.09
24160;BME280;62385;41.594;23.808;2023-07-29T10:17:36;95111.63;;;27.92;31.25
24160;BME280;62385;41.594;23.808;2023-07-29T10:20:07;95117.59;;;27.99;31.06
24160;BME280;62385;41.594;23.808;2023-07-29T10:22:40;95103.13;;;28.27;31.14
24160;BME280;62385;41.594;23.808;2023-07-29T10:25:16;95114.09;;;28.70;31.62
24160;BME280;62385;41.594;23.808;2023-07-29T10:27:48;95110.41;;;28.56;31.96
24160;BME280;62385;41.594;23.808;2023-07-29T10:30:14;95109.94;;;28.25;32.19
24160;BME280;62385;41.594;23.808;2023-07-29T10:32:44;95103.19;;;28.65;29.12
24160;BME280;62385;41.594;23.808;2023-07-29T10:35:14;95093.88;;;28.66;34.10
24160;BME280;62385;41.594;23.808;2023-07-29T10:37:40;95089.72;;;28.92;30.01
24160;BME280;62385;41.594;23.808;2023-07-29T10:40:08;95078.28;;;28.90;31.36
24160;BME280;62385;41.594;23.808;2023-07-29T10:42:34;95076.19;;;29.38;31.83
24160;BME280;62385;41.594;23.808;2023-07-29T10:45:00;95084.25;;;29.29;30.93
24160;BME280;62385;41.594;23.808;2023-07-29T10:47:28;95081.66;;;29.01;31.92
24160;BME280;62385;41.594;23.808;2023-07-29T10:49:57;95064.53;;;29.14;31.59
24160;BME280;62385;41.594;23.808;2023-07-29T10:55:32;95081.38;;;29.40;32.30
24160;BME280;62385;41.594;23.808;2023-07-29T10:58:06;95052.13;;;29.54;31.20
24160;BME280;62385;41.594;23.808;2023-07-29T11:00:32;95064.16;;;29.85;30.01
24160;BME280;62385;41.594;23.808;2023-07-29T11:03:07;95047.22;;;29.37;29.53
24160;BME280;62385;41.594;23.808;2023-07-29T11:10:43;95054.69;;;29.64;30.00
24160;BME280;62385;41.594;23.808;2023-07-29T11:13:13;95047.16;;;30.15;30.24
24160;BME280;62385;41.594;23.808;2023-07-29T11:15:46;95046.41;;;30.78;29.84
24160;BME280;62385;41.594;23.808;2023-07-29T11:18:12;95041.91;;;30.46;28.11
24160;BME280;62385;41.594;23.808;2023-07-29T11:20:42;95048.88;;;30.11;29.32
24160;BME280;62385;41.594;23.808;2023-07-29T11:23:11;95043.94;;;30.27;29.61
24160;BME280;62385;41.594;23.808;2023-07-29T11:25:36;95043.78;;;29.77;29.79
24160;BME280;62385;41.594;23.808;2023-07-29T11:28:02;95036.34;;;30.10;28.71
24160;BME280;62385;41.594;23.808;2023-07-29T11:30:27;95039.66;;;30.35;30.06
24160;BME280;62385;41.594;23.808;2023-07-29T11:32:55;95045.03;;;30.67;29.17
24160;BME280;62385;41.594;23.808;2023-07-29T11:35:21;95037.81;;;30.71;30.20
24160;BME280;62385;41.594;23.808;2023-07-29T11:37:49;95031.03;;;30.68;30.30
24160;BME280;62385;41.594;23.808;2023-07-29T11:40:24;95037.94;;;31.02;27.72
24160;BME280;62385;41.594;23.808;2023-07-29T11:42:52;95031.94;;;30.64;27.56
24160;BME280;62385;41.594;23.808;2023-07-29T11:45:18;95033.53;;;30.65;28.55
24160;BME280;62385;41.594;23.808;2023-07-29T11:47:45;95014.28;;;30.56;28.65
24160;BME280;62385;41.594;23.808;2023-07-29T11:50:12;95012.88;;;30.59;28.94
24160;BME280;62385;41.594;23.808;2023-07-29T11:52:45;95010.91;;;31.09;29.27
24160;BME280;62385;41.594;23.808;2023-07-29T11:55:12;95025.75;;;30.94;30.14
24160;BME280;62385;41.594;23.808;2023-07-29T11:57:39;95009.09;;;31.04;30.27
24160;BME280;62385;41.594;23.808;2023-07-29T12:00:07;95020.19;;;31.44;29.63
24160;BME280;62385;41.594;23.808;2023-07-29T12:02:39;95011.16;;;31.66;27.66
24160;BME280;62385;41.594;23.808;2023-07-29T12:05:06;94995.84;;;31.73;25.85
24160;BME280;62385;41.594;23.808;2023-07-29T12:07:33;95007.03;;;31.32;27.97
24160;BME280;62385;41.594;23.808;2023-07-29T12:09:59;95001.09;;;31.61;29.96
24160;BME280;62385;41.594;23.808;2023-07-29T12:12:24;95007.91;;;31.41;29.38
24160;BME280;62385;41.594;23.808;2023-07-29T12:14:50;95002.19;;;32.13;28.08
24160;BME280;62385;41.594;23.808;2023-07-29T12:17:16;94997.00;;;31.72;27.57
24160;BME280;62385;41.594;23.808;2023-07-29T12:19:42;94996.88;;;31.33;28.16
24160;BME280;62385;41.594;23.808;2023-07-29T12:22:10;94986.53;;;31.07;27.47
24160;BME280;62385;41.594;23.808;2023-07-29T12:24:39;94975.81;;;30.97;27.94
24160;BME280;62385;41.594;23.808;2023-07-29T12:27:05;94980.44;;;31.55;26.90
24160;BME280;62385;41.594;23.808;2023-07-29T12:29:31;94981.94;;;31.70;28.84
24160;BME280;62385;41.594;23.808;2023-07-29T12:32:02;94979.25;;;32.18;27.89
24160;BME280;62385;41.594;23.808;2023-07-29T12:34:29;94970.72;;;32.36;27.89
24160;BME280;62385;41.594;23.808;2023-07-29T12:36:57;94953.88;;;32.12;26.04
24160;BME280;62385;41.594;23.808;2023-07-29T12:39:28;94964.84;;;32.12;26.58
24160;BME280;62385;41.594;23.808;2023-07-29T12:41:55;94952.44;;;32.32;27.64
24160;BME280;62385;41.594;23.808;2023-07-29T12:44:23;94971.88;;;32.53;27.03
24160;BME280;62385;41.594;23.808;2023-07-29T12:46:48;94964.72;;;32.34;28.74
24160;BME280;62385;41.594;23.808;2023-07-29T12:49:14;94957.97;;;32.40;28.66
24160;BME280;62385;41.594;23.808;2023-07-29T12:51:40;94957.34;;;32.61;29.74
24160;BME280;62385;41.594;23.808;2023-07-29T12:54:07;94970.47;;;33.07;28.87
24160;BME280;62385;41.594;23.808;2023-07-29T12:56:33;94960.91;;;33.38;27.55
24160;BME280;62385;41.594;23.808;2023-07-29T12:58:59;94944.09;;;32.88;29.02
24160;BME280;62385;41.594;23.808;2023-07-29T13:01:26;94956.13;;;33.82;27.43